sensor_id;sensor_type;location;lat;lon;timestamp;pressure;altitude;pressure_sealevel;temperature;humidity
68873;BME280;55907;50.806;12.882;2023-06-10T00:01:14;972.5;;;16.7;78.5
68873;BME280;55907;50.806;12.882;2023-06-10T00:04:16;972.4;;;16.7;78.0
68873;BME280;55907;50.806;12.882;2023-06-10T00:07:17;972.4;;;16.7;77.7
68873;BME280;55907;50.806;12.882;2023-06-10T00:10:18;972.4;;;16.8;78.9
68873;BME280;55907;50.806;12.882;2023-06-10T00:16:21;972.1;;;16.6;80.6
68873;BME280;55907;50.806;12.882;2023-06-10T00:19:23;972.1;;;16.6;78.2
68873;BME280;55907;50.806;12.882;2023-06-10T00:25:26;972.2;;;16.5;80.2
68873;BME280;55907;50.806;12.882;2023-06-10T00:28:27;972.2;;;16.4;77.7
68873;BME280;55907;50.806;12.882;2023-06-10T00:31:28;972.2;;;16.4;77.3
68873;BME280;55907;50.806;12.882;2023-06-10T00:34:30;972.2;;;16.4;78.0
68873;BME280;55907;50.806;12.882;2023-06-10T00:37:32;972.2;;;16.4;79.2
68873;BME280;55907;50.806;12.882;2023-06-10T00:40:33;972.2;;;16.3;79.5
68873;BME280;55907;50.806;12.882;2023-06-10T00:43:34;972.4;;;16.2;80.5
68873;BME280;55907;50.806;12.882;2023-06-10T00:46:36;972.4;;;16.1;80.9
68873;BME280;55907;50.806;12.882;2023-06-10T00:49:37;972.4;;;16.0;80.0
68873;BME280;55907;50.806;12.882;2023-06-10T00:55:41;972.4;;;16.0;81.7
68873;BME280;55907;50.806;12.882;2023-06-10T00:58:41;972.3;;;15.9;82.1
68873;BME280;55907;50.806;12.882;2023-06-10T01:01:43;972.3;;;15.8;83.3
68873;BME280;55907;50.806;12.882;2023-06-10T01:07:50;972.2;;;15.7;83.6
68873;BME280;55907;50.806;12.882;2023-06-10T01:10:50;972.3;;;15.7;83.8
68873;BME280;55907;50.806;12.882;2023-06-10T01:16:51;972.3;;;15.6;83.4
68873;BME280;55907;50.806;12.882;2023-06-10T01:19:53;972.3;;;15.6;83.9
68873;BME280;55907;50.806;12.882;2023-06-10T01:22:53;972.3;;;15.5;84.4
68873;BME280;55907;50.806;12.882;2023-06-10T01:25:59;972.3;;;15.5;84.2
68873;BME280;55907;50.806;12.882;2023-06-10T01:28:59;972.3;;;15.5;85.3
68873;BME280;55907;50.806;12.882;2023-06-10T01:32:01;972.3;;;15.4;85.7
68873;BME280;55907;50.806;12.882;2023-06-10T01:34:59;972.3;;;15.4;85.9
68873;BME280;55907;50.806;12.882;2023-06-10T01:38:01;972.3;;;15.3;85.7
68873;BME280;55907;50.806;12.882;2023-06-10T01:41:03;972.3;;;15.3;87.2
68873;BME280;55907;50.806;12.882;2023-06-10T01:47:04;972.5;;;15.2;88.0
68873;BME280;55907;50.806;12.882;2023-06-10T01:50:07;972.5;;;15.1;88.3
68873;BME280;55907;50.806;12.882;2023-06-10T01:53:07;972.6;;;15.1;88.3
68873;BME280;55907;50.806;12.882;2023-06-10T01:56:09;972.6;;;15.0;88.9
68873;BME280;55907;50.806;12.882;2023-06-10T01:59:10;972.6;;;14.9;89.5
68873;BME280;55907;50.806;12.882;2023-06-10T02:02:12;972.7;;;14.9;90.0
68873;BME280;55907;50.806;12.882;2023-06-10T02:05:13;972.7;;;14.9;89.7
68873;BME280;55907;50.806;12.882;2023-06-10T02:08:15;972.8;;;14.9;90.7
68873;BME280;55907;50.806;12.882;2023-06-10T02:11:16;972.8;;;14.9;90.0
68873;BME280;55907;50.806;12.882;2023-06-10T02:14:18;972.9;;;14.9;89.9
68873;BME280;55907;50.806;12.882;2023-06-10T02:17:19;972.8;;;14.9;90.4
68873;BME280;55907;50.806;12.882;2023-06-10T02:20:21;972.9;;;14.9;91.4
68873;BME280;55907;50.806;12.882;2023-06-10T02:23:22;972.9;;;14.8;91.5
68873;BME280;55907;50.806;12.882;2023-06-10T02:26:23;972.9;;;14.8;91.9
68873;BME280;55907;50.806;12.882;2023-06-10T02:29:25;973.0;;;14.8;91.7
68873;BME280;55907;50.806;12.882;2023-06-10T02:32:26;973.0;;;14.8;91.9
68873;BME280;55907;50.806;12.882;2023-06-10T02:35:28;973.0;;;14.9;92.0
68873;BME280;55907;50.806;12.882;2023-06-10T02:38:29;973.0;;;14.9;91.6
68873;BME280;55907;50.806;12.882;2023-06-10T02:41:31;973.0;;;14.9;92.1
68873;BME280;55907;50.806;12.882;2023-06-10T02:44:32;973.0;;;14.9;91.9
68873;BME280;55907;50.806;12.882;2023-06-10T02:47:33;973.0;;;14.9;89.4
68873;BME280;55907;50.806;12.882;2023-06-10T02:50:35;973.0;;;15.0;87.7
68873;BME280;55907;50.806;12.882;2023-06-10T02:53:37;973.0;;;15.1;87.7
68873;BME280;55907;50.806;12.882;2023-06-10T02:56:38;973.0;;;15.2;86.3
68873;BME280;55907;50.806;12.882;2023-06-10T02:59:40;973.0;;;15.3;86.4
68873;BME280;55907;50.806;12.882;2023-06-10T03:08:44;973.0;;;15.4;87.3
68873;BME280;55907;50.806;12.882;2023-06-10T03:11:45;972.9;;;15.5;86.7
68873;BME280;55907;50.806;12.882;2023-06-10T03:14:47;972.9;;;15.6;86.3
68873;BME280;55907;50.806;12.882;2023-06-10T03:17:48;973.0;;;15.6;86.6
68873;BME280;55907;50.806;12.882;2023-06-10T03:20:49;973.0;;;15.7;86.3
68873;BME280;55907;50.806;12.882;2023-06-10T03:23:51;973.1;;;15.8;85.9
68873;BME280;55907;50.806;12.882;2023-06-10T03:26:52;973.1;;;15.9;85.0
68873;BME280;55907;50.806;12.882;2023-06-10T03:29:54;973.1;;;16.0;83.8
68873;BME280;55907;50.806;12.882;2023-06-10T03:35:57;973.1;;;16.2;83.1
68873;BME280;55907;50.806;12.882;2023-06-10T03:38:58;973.2;;;16.3;82.0
68873;BME280;55907;50.806;12.882;2023-06-10T03:41:59;973.1;;;16.4;82.9
68873;BME280;55907;50.806;12.882;2023-06-10T03:45:01;973.2;;;16.4;83.2
68873;BME280;55907;50.806;12.882;2023-06-10T03:51:04;973.2;;;16.5;83.3
68873;BME280;55907;50.806;12.882;2023-06-10T03:54:05;973.2;;;16.6;83.1
68873;BME280;55907;50.806;12.882;2023-06-10T03:57:07;973.3;;;16.6;83.3
68873;BME280;55907;50.806;12.882;2023-06-10T04:00:09;973.3;;;16.7;83.6
68873;BME280;55907;50.806;12.882;2023-06-10T04:03:09;973.3;;;16.7;82.8
68873;BME280;55907;50.806;12.882;2023-06-10T04:06:11;973.2;;;16.8;82.4
68873;BME280;55907;50.806;12.882;2023-06-10T04:09:12;973.3;;;16.9;82.2
68873;BME280;55907;50.806;12.882;2023-06-10T04:12:14;973.3;;;16.9;82.1
68873;BME280;55907;50.806;12.882;2023-06-10T04:15:15;973.3;;;16.9;81.0
68873;BME280;55907;50.806;12.882;2023-06-10T04:18:17;973.3;;;17.0;80.4
68873;BME280;55907;50.806;12.882;2023-06-10T04:21:18;973.3;;;17.1;80.3
68873;BME280;55907;50.806;12.882;2023-06-10T04:24:19;973.3;;;17.2;79.9
68873;BME280;55907;50.806;12.882;2023-06-10T04:27:21;973.3;;;17.4;79.0
68873;BME280;55907;50.806;12.882;2023-06-10T04:30:22;973.3;;;18.5;75.1
68873;BME280;55907;50.806;12.882;2023-06-10T04:33:24;973.3;;;20.1;68.8
68873;BME280;55907;50.806;12.882;2023-06-10T04:36:25;973.3;;;21.7;63.4
68873;BME280;55907;50.806;12.882;2023-06-10T04:39:27;973.3;;;23.1;57.4
68873;BME280;55907;50.806;12.882;2023-06-10T04:42:28;973.3;;;24.3;54.1
68873;BME280;55907;50.806;12.882;2023-06-10T04:45:29;973.3;;;25.5;50.7
68873;BME280;55907;50.806;12.882;2023-06-10T04:48:31;973.3;;;26.6;47.6
68873;BME280;55907;50.806;12.882;2023-06-10T04:54:33;973.3;;;28.5;47.3
68873;BME280;55907;50.806;12.882;2023-06-10T04:57:35;973.3;;;29.0;42.5
68873;BME280;55907;50.806;12.882;2023-06-10T05:03:37;973.4;;;30.0;40.9
68873;BME280;55907;50.806;12.882;2023-06-10T05:06:39;973.4;;;30.6;41.3
68873;BME280;55907;50.806;12.882;2023-06-10T05:09:40;973.4;;;31.1;39.1
68873;BME280;55907;50.806;12.882;2023-06-10T05:12:41;973.5;;;31.6;36.8
68873;BME280;55907;50.806;12.882;2023-06-10T05:15:43;973.6;;;32.2;37.7
68873;BME280;55907;50.806;12.882;2023-06-10T05:18:44;973.5;;;32.5;35.6
68873;BME280;55907;50.806;12.882;2023-06-10T05:21:45;973.5;;;32.6;35.4
68873;BME280;55907;50.806;12.882;2023-06-10T05:24:47;973.6;;;32.7;36.6
68873;BME280;55907;50.806;12.882;2023-06-10T05:27:48;973.6;;;32.8;36.6
68873;BME280;55907;50.806;12.882;2023-06-10T05:30:49;973.6;;;32.9;34.5
68873;BME280;55907;50.806;12.882;2023-06-10T05:33:50;973.6;;;33.2;35.4
68873;BME280;55907;50.806;12.882;2023-06-10T05:36:52;973.6;;;33.3;33.1
68873;BME280;55907;50.806;12.882;2023-06-10T05:39:53;973.6;;;33.3;35.3
68873;BME280;55907;50.806;12.882;2023-06-10T05:42:55;973.6;;;32.7;34.4
68873;BME280;55907;50.806;12.882;2023-06-10T05:45:56;973.6;;;31.8;36.0
68873;BME280;55907;50.806;12.882;2023-06-10T05:48:57;973.6;;;30.4;38.3
68873;BME280;55907;50.806;12.882;2023-06-10T05:51:58;973.6;;;29.1;40.5
68873;BME280;55907;50.806;12.882;2023-06-10T05:55:00;973.5;;;27.9;42.0
68873;BME280;55907;50.806;12.882;2023-06-10T05:58:01;973.5;;;26.8;42.9
68873;BME280;55907;50.806;12.882;2023-06-10T06:01:02;973.5;;;26.1;43.6
68873;BME280;55907;50.806;12.882;2023-06-10T06:04:04;973.5;;;25.7;45.9
68873;BME280;55907;50.806;12.882;2023-06-10T06:13:08;973.6;;;25.5;46.0
68873;BME280;55907;50.806;12.882;2023-06-10T06:16:09;973.6;;;25.7;45.4
68873;BME280;55907;50.806;12.882;2023-06-10T06:19:10;973.6;;;25.5;45.6
68873;BME280;55907;50.806;12.882;2023-06-10T06:22:12;973.7;;;25.3;47.1
68873;BME280;55907;50.806;12.882;2023-06-10T06:25:14;973.7;;;24.9;47.5
68873;BME280;55907;50.806;12.882;2023-06-10T06:28:15;973.6;;;24.6;49.4
68873;BME280;55907;50.806;12.882;2023-06-10T06:31:16;973.7;;;24.2;49.9
68873;BME280;55907;50.806;12.882;2023-06-10T06:34:17;973.7;;;23.9;51.4
68873;BME280;55907;50.806;12.882;2023-06-10T06:37:19;973.7;;;23.7;52.3
68873;BME280;55907;50.806;12.882;2023-06-10T06:40:20;973.7;;;23.5;52.0
68873;BME280;55907;50.806;12.882;2023-06-10T06:43:21;973.7;;;23.4;53.3
68873;BME280;55907;50.806;12.882;2023-06-10T06:46:23;973.8;;;23.3;53.6
68873;BME280;55907;50.806;12.882;2023-06-10T06:49:24;973.8;;;23.4;53.0
68873;BME280;55907;50.806;12.882;2023-06-10T06:52:25;973.8;;;23.5;53.2
68873;BME280;55907;50.806;12.882;2023-06-10T06:55:27;973.9;;;24.0;52.3
68873;BME280;55907;50.806;12.882;2023-06-10T07:01:30;974.0;;;25.1;49.2
68873;BME280;55907;50.806;12.882;2023-06-10T07:04:31;974.0;;;25.4;48.6
68873;BME280;55907;50.806;12.882;2023-06-10T07:07:32;974.0;;;25.8;48.8
68873;BME280;55907;50.806;12.882;2023-06-10T07:10:34;974.0;;;25.7;49.1
68873;BME280;55907;50.806;12.882;2023-06-10T07:19:38;974.0;;;25.2;50.2
68873;BME280;55907;50.806;12.882;2023-06-10T07:22:39;974.0;;;25.0;50.9
68873;BME280;55907;50.806;12.882;2023-06-10T07:25:41;974.0;;;24.7;51.3
68873;BME280;55907;50.806;12.882;2023-06-10T07:28:42;974.0;;;24.5;52.6
68873;BME280;55907;50.806;12.882;2023-06-10T07:31:43;974.0;;;24.3;53.3
68873;BME280;55907;50.806;12.882;2023-06-10T07:34:45;973.9;;;24.2;53.3
68873;BME280;55907;50.806;12.882;2023-06-10T07:37:46;974.0;;;24.1;53.3
68873;BME280;55907;50.806;12.882;2023-06-10T07:40:47;974.1;;;24.1;52.7
68873;BME280;55907;50.806;12.882;2023-06-10T07:43:49;974.0;;;23.9;52.5
68873;BME280;55907;50.806;12.882;2023-06-10T07:46:50;974.0;;;23.9;52.5
68873;BME280;55907;50.806;12.882;2023-06-10T07:49:52;974.1;;;23.9;53.1
68873;BME280;55907;50.806;12.882;2023-06-10T07:52:53;974.1;;;24.0;53.2
68873;BME280;55907;50.806;12.882;2023-06-10T07:55:55;974.0;;;24.0;52.1
68873;BME280;55907;50.806;12.882;2023-06-10T07:58:56;974.0;;;23.9;52.5
68873;BME280;55907;50.806;12.882;2023-06-10T08:01:57;974.0;;;24.1;53.0
68873;BME280;55907;50.806;12.882;2023-06-10T08:04:58;974.0;;;24.4;52.1
68873;BME280;55907;50.806;12.882;2023-06-10T08:08:00;974.0;;;24.6;51.6
68873;BME280;55907;50.806;12.882;2023-06-10T08:11:01;974.0;;;24.7;51.7
68873;BME280;55907;50.806;12.882;2023-06-10T08:14:02;974.1;;;24.8;51.0
68873;BME280;55907;50.806;12.882;2023-06-10T08:17:04;974.1;;;25.1;50.4
68873;BME280;55907;50.806;12.882;2023-06-10T08:20:07;974.1;;;25.4;49.0
68873;BME280;55907;50.806;12.882;2023-06-10T08:23:07;974.1;;;25.2;49.1
68873;BME280;55907;50.806;12.882;2023-06-10T08:26:08;974.1;;;25.2;48.9
68873;BME280;55907;50.806;12.882;2023-06-10T08:29:11;974.1;;;25.0;49.0
68873;BME280;55907;50.806;12.882;2023-06-10T08:32:11;974.2;;;24.8;50.7
68873;BME280;55907;50.806;12.882;2023-06-10T08:35:12;974.2;;;24.9;50.4
68873;BME280;55907;50.806;12.882;2023-06-10T08:38:14;974.2;;;25.0;50.7
68873;BME280;55907;50.806;12.882;2023-06-10T08:41:17;974.3;;;25.3;49.8
68873;BME280;55907;50.806;12.882;2023-06-10T08:44:17;974.2;;;25.5;49.2
68873;BME280;55907;50.806;12.882;2023-06-10T08:47:18;974.3;;;25.8;49.7
68873;BME280;55907;50.806;12.882;2023-06-10T08:50:19;974.3;;;26.0;47.9
68873;BME280;55907;50.806;12.882;2023-06-10T08:53:20;974.2;;;26.3;47.5
68873;BME280;55907;50.806;12.882;2023-06-10T08:56:22;974.3;;;26.5;46.0
68873;BME280;55907;50.806;12.882;2023-06-10T08:59:24;974.3;;;26.5;45.6
68873;BME280;55907;50.806;12.882;2023-06-10T09:02:25;974.3;;;26.0;46.6
68873;BME280;55907;50.806;12.882;2023-06-10T09:05:27;974.3;;;26.2;47.0
68873;BME280;55907;50.806;12.882;2023-06-10T09:08:27;974.3;;;26.9;45.0
68873;BME280;55907;50.806;12.882;2023-06-10T09:11:28;974.3;;;27.8;43.3
68873;BME280;55907;50.806;12.882;2023-06-10T09:14:30;974.2;;;28.6;41.6
68873;BME280;55907;50.806;12.882;2023-06-10T09:20:32;974.2;;;27.1;44.5
68873;BME280;55907;50.806;12.882;2023-06-10T09:23:35;974.2;;;26.2;46.6
68873;BME280;55907;50.806;12.882;2023-06-10T09:26:35;974.3;;;25.6;47.7
68873;BME280;55907;50.806;12.882;2023-06-10T09:29:47;974.4;;;25.2;49.0
68873;BME280;55907;50.806;12.882;2023-06-10T09:32:38;974.4;;;24.9;49.7
68873;BME280;55907;50.806;12.882;2023-06-10T09:35:45;974.4;;;25.5;47.4
68873;BME280;55907;50.806;12.882;2023-06-10T09:38:40;974.3;;;26.4;45.6
68873;BME280;55907;50.806;12.882;2023-06-10T09:41:43;974.4;;;27.1;43.3
68873;BME280;55907;50.806;12.882;2023-06-10T09:47:45;974.5;;;26.6;41.8
68873;BME280;55907;50.806;12.882;2023-06-10T09:53:48;974.5;;;25.5;44.6
68873;BME280;55907;50.806;12.882;2023-06-10T09:56:50;974.5;;;25.2;45.3
68873;BME280;55907;50.806;12.882;2023-06-10T09:59:52;974.5;;;25.0;45.8
68873;BME280;55907;50.806;12.882;2023-06-10T10:02:52;974.5;;;25.1;46.7
68873;BME280;55907;50.806;12.882;2023-06-10T10:05:58;974.5;;;25.5;45.9
68873;BME280;55907;50.806;12.882;2023-06-10T10:08:54;974.5;;;25.9;45.3
68873;BME280;55907;50.806;12.882;2023-06-10T10:11:57;974.5;;;26.2;45.4
68873;BME280;55907;50.806;12.882;2023-06-10T10:14:57;974.5;;;26.1;44.4
68873;BME280;55907;50.806;12.882;2023-06-10T10:18:05;974.6;;;25.9;44.2
68873;BME280;55907;50.806;12.882;2023-06-10T10:21:01;974.5;;;25.6;45.5
68873;BME280;55907;50.806;12.882;2023-06-10T10:24:03;974.6;;;25.7;46.9
68873;BME280;55907;50.806;12.882;2023-06-10T10:27:07;974.6;;;25.4;46.1
68873;BME280;55907;50.806;12.882;2023-06-10T10:30:05;974.6;;;25.3;46.7
68873;BME280;55907;50.806;12.882;2023-06-10T10:33:09;974.6;;;25.2;47.2
68873;BME280;55907;50.806;12.882;2023-06-10T10:36:07;974.6;;;25.2;48.3
68873;BME280;55907;50.806;12.882;2023-06-10T10:42:09;974.6;;;25.5;50.0
68873;BME280;55907;50.806;12.882;2023-06-10T10:45:10;974.6;;;25.7;48.4
68873;BME280;55907;50.806;12.882;2023-06-10T10:57:17;974.5;;;25.4;48.2
68873;BME280;55907;50.806;12.882;2023-06-10T11:00:24;974.5;;;25.3;49.0
68873;BME280;55907;50.806;12.882;2023-06-10T11:03:19;974.5;;;25.3;48.5
68873;BME280;55907;50.806;12.882;2023-06-10T11:06:20;974.5;;;25.2;49.2
68873;BME280;55907;50.806;12.882;2023-06-10T11:09:25;974.5;;;25.3;49.1
68873;BME280;55907;50.806;12.882;2023-06-10T11:12:23;974.5;;;25.4;48.4
68873;BME280;55907;50.806;12.882;2023-06-10T11:15:25;974.5;;;25.3;48.5
68873;BME280;55907;50.806;12.882;2023-06-10T11:18:26;974.4;;;25.4;49.4
68873;BME280;55907;50.806;12.882;2023-06-10T11:21:27;974.4;;;25.2;49.2
68873;BME280;55907;50.806;12.882;2023-06-10T11:24:28;974.4;;;25.5;50.3
68873;BME280;55907;50.806;12.882;2023-06-10T11:27:37;974.4;;;25.8;47.5
68873;BME280;55907;50.806;12.882;2023-06-10T11:33:32;974.3;;;26.5;45.8
68873;BME280;55907;50.806;12.882;2023-06-10T11:36:37;974.2;;;26.7;45.1
68873;BME280;55907;50.806;12.882;2023-06-10T11:39:35;974.3;;;27.0;43.3
68873;BME280;55907;50.806;12.882;2023-06-10T11:42:38;974.1;;;27.1;42.8
68873;BME280;55907;50.806;12.882;2023-06-10T11:45:40;974.1;;;27.1;42.1
68873;BME280;55907;50.806;12.882;2023-06-10T11:48:48;974.2;;;27.3;41.6
68873;BME280;55907;50.806;12.882;2023-06-10T11:54:42;974.1;;;27.6;43.3
68873;BME280;55907;50.806;12.882;2023-06-10T11:57:43;974.0;;;27.7;42.0
68873;BME280;55907;50.806;12.882;2023-06-10T12:00:45;974.1;;;27.3;41.5
68873;BME280;55907;50.806;12.882;2023-06-10T12:03:46;973.9;;;26.6;43.3
68873;BME280;55907;50.806;12.882;2023-06-10T12:06:48;973.9;;;26.5;43.3
68873;BME280;55907;50.806;12.882;2023-06-10T12:09:58;973.9;;;27.0;44.2
68873;BME280;55907;50.806;12.882;2023-06-10T12:12:50;973.9;;;27.3;43.5
68873;BME280;55907;50.806;12.882;2023-06-10T12:15:52;973.8;;;27.4;42.8
68873;BME280;55907;50.806;12.882;2023-06-10T12:19:00;973.8;;;27.6;44.4
68873;BME280;55907;50.806;12.882;2023-06-10T12:21:54;973.8;;;27.6;42.0
68873;BME280;55907;50.806;12.882;2023-06-10T12:27:58;973.7;;;27.6;42.2
68873;BME280;55907;50.806;12.882;2023-06-10T12:31:06;973.6;;;27.5;40.3
68873;BME280;55907;50.806;12.882;2023-06-10T12:34:07;973.6;;;27.4;39.4
68873;BME280;55907;50.806;12.882;2023-06-10T12:37:01;973.6;;;27.3;39.4
68873;BME280;55907;50.806;12.882;2023-06-10T12:40:03;973.6;;;27.2;38.1
68873;BME280;55907;50.806;12.882;2023-06-10T12:43:04;973.6;;;27.0;40.0
68873;BME280;55907;50.806;12.882;2023-06-10T12:46:08;973.5;;;27.1;41.7
68873;BME280;55907;50.806;12.882;2023-06-10T12:49:06;973.6;;;27.2;39.6
68873;BME280;55907;50.806;12.882;2023-06-10T12:52:08;973.5;;;27.2;40.7
68873;BME280;55907;50.806;12.882;2023-06-10T12:55:09;973.6;;;27.1;39.3
68873;BME280;55907;50.806;12.882;2023-06-10T12:58:11;973.7;;;27.2;39.4
68873;BME280;55907;50.806;12.882;2023-06-10T13:01:12;973.7;;;27.3;40.2
68873;BME280;55907;50.806;12.882;2023-06-10T13:04:13;973.7;;;27.2;39.2
68873;BME280;55907;50.806;12.882;2023-06-10T13:07:15;973.7;;;26.9;39.0
68873;BME280;55907;50.806;12.882;2023-06-10T13:10:16;973.7;;;27.2;39.3
68873;BME280;55907;50.806;12.882;2023-06-10T13:13:17;973.7;;;27.5;40.7
68873;BME280;55907;50.806;12.882;2023-06-10T13:16:18;973.8;;;27.5;38.3
68873;BME280;55907;50.806;12.882;2023-06-10T13:19:20;973.8;;;27.2;38.6
68873;BME280;55907;50.806;12.882;2023-06-10T13:22:21;973.8;;;27.2;39.0
68873;BME280;55907;50.806;12.882;2023-06-10T13:25:22;973.8;;;27.3;38.3
68873;BME280;55907;50.806;12.882;2023-06-10T13:28:24;973.8;;;27.2;39.8
68873;BME280;55907;50.806;12.882;2023-06-10T13:31:25;973.6;;;27.0;38.1
68873;BME280;55907;50.806;12.882;2023-06-10T13:34:27;973.6;;;27.1;37.9
68873;BME280;55907;50.806;12.882;2023-06-10T13:37:28;973.7;;;27.3;37.3
68873;BME280;55907;50.806;12.882;2023-06-10T13:40:29;973.6;;;27.2;37.8
68873;BME280;55907;50.806;12.882;2023-06-10T13:43:31;973.6;;;27.1;37.9
68873;BME280;55907;50.806;12.882;2023-06-10T13:46:32;973.6;;;27.1;38.0
68873;BME280;55907;50.806;12.882;2023-06-10T13:49:33;973.5;;;27.1;39.6
68873;BME280;55907;50.806;12.882;2023-06-10T13:52:35;973.5;;;27.0;38.5
68873;BME280;55907;50.806;12.882;2023-06-10T13:55:36;973.5;;;27.0;38.7
68873;BME280;55907;50.806;12.882;2023-06-10T13:58:37;973.4;;;27.3;34.3
68873;BME280;55907;50.806;12.882;2023-06-10T14:01:39;973.4;;;27.4;34.1
68873;BME280;55907;50.806;12.882;2023-06-10T14:07:42;973.4;;;27.4;35.6
68873;BME280;55907;50.806;12.882;2023-06-10T14:10:43;973.4;;;27.3;34.2
68873;BME280;55907;50.806;12.882;2023-06-10T14:13:44;973.4;;;27.3;34.8
68873;BME280;55907;50.806;12.882;2023-06-10T14:16:46;973.3;;;27.4;34.9
68873;BME280;55907;50.806;12.882;2023-06-10T14:19:47;973.3;;;27.5;34.1
68873;BME280;55907;50.806;12.882;2023-06-10T14:25:50;973.3;;;27.7;34.5
68873;BME280;55907;50.806;12.882;2023-06-10T14:28:51;973.3;;;27.8;34.4
68873;BME280;55907;50.806;12.882;2023-06-10T14:34:54;973.3;;;27.8;34.4
68873;BME280;55907;50.806;12.882;2023-06-10T14:37:55;973.3;;;27.6;35.2
68873;BME280;55907;50.806;12.882;2023-06-10T14:40:56;973.4;;;27.5;36.3
68873;BME280;55907;50.806;12.882;2023-06-10T14:43:58;973.3;;;27.4;33.8
68873;BME280;55907;50.806;12.882;2023-06-10T14:46:59;973.4;;;27.3;33.5
68873;BME280;55907;50.806;12.882;2023-06-10T14:50:01;973.4;;;27.3;35.6
68873;BME280;55907;50.806;12.882;2023-06-10T14:53:02;973.4;;;27.4;34.4
68873;BME280;55907;50.806;12.882;2023-06-10T14:56:04;973.4;;;27.4;34.5
68873;BME280;55907;50.806;12.882;2023-06-10T14:59:05;973.4;;;27.4;33.9
68873;BME280;55907;50.806;12.882;2023-06-10T15:02:06;973.3;;;27.3;34.3
68873;BME280;55907;50.806;12.882;2023-06-10T15:05:08;973.3;;;27.2;34.1
68873;BME280;55907;50.806;12.882;2023-06-10T15:08:09;973.3;;;27.1;33.6
68873;BME280;55907;50.806;12.882;2023-06-10T15:11:10;973.3;;;27.1;34.4
68873;BME280;55907;50.806;12.882;2023-06-10T15:14:11;973.3;;;27.0;34.4
68873;BME280;55907;50.806;12.882;2023-06-10T15:17:13;973.2;;;27.0;34.5
68873;BME280;55907;50.806;12.882;2023-06-10T15:20:14;973.3;;;26.9;34.8
68873;BME280;55907;50.806;12.882;2023-06-10T15:23:15;973.3;;;26.9;35.5
68873;BME280;55907;50.806;12.882;2023-06-10T15:29:18;973.2;;;26.8;36.5
68873;BME280;55907;50.806;12.882;2023-06-10T15:32:20;973.2;;;26.9;37.1
68873;BME280;55907;50.806;12.882;2023-06-10T15:35:21;973.2;;;26.8;37.0
68873;BME280;55907;50.806;12.882;2023-06-10T15:38:22;973.3;;;26.8;37.8
68873;BME280;55907;50.806;12.882;2023-06-10T15:41:24;973.3;;;26.8;37.4
68873;BME280;55907;50.806;12.882;2023-06-10T15:44:25;973.2;;;26.7;37.0
68873;BME280;55907;50.806;12.882;2023-06-10T15:47:26;973.3;;;26.6;37.1
68873;BME280;55907;50.806;12.882;2023-06-10T15:50:28;973.2;;;26.7;37.1
68873;BME280;55907;50.806;12.882;2023-06-10T15:53:29;973.3;;;26.7;35.5
68873;BME280;55907;50.806;12.882;2023-06-10T15:56:30;973.2;;;26.7;35.5
68873;BME280;55907;50.806;12.882;2023-06-10T15:59:32;973.2;;;26.6;36.0
68873;BME280;55907;50.806;12.882;2023-06-10T16:02:33;973.3;;;26.5;36.3
68873;BME280;55907;50.806;12.882;2023-06-10T16:11:37;973.3;;;26.4;36.5
68873;BME280;55907;50.806;12.882;2023-06-10T16:14:39;973.3;;;26.5;34.4
68873;BME280;55907;50.806;12.882;2023-06-10T16:17:40;973.4;;;26.4;33.7
68873;BME280;55907;50.806;12.882;2023-06-10T16:20:41;973.5;;;26.3;32.7
68873;BME280;55907;50.806;12.882;2023-06-10T16:23:43;973.4;;;26.3;33.0
68873;BME280;55907;50.806;12.882;2023-06-10T16:26:44;973.4;;;26.3;33.3
68873;BME280;55907;50.806;12.882;2023-06-10T16:29:45;973.4;;;26.3;33.6
68873;BME280;55907;50.806;12.882;2023-06-10T16:32:47;973.5;;;26.2;33.6
68873;BME280;55907;50.806;12.882;2023-06-10T16:35:48;973.5;;;26.2;34.4
68873;BME280;55907;50.806;12.882;2023-06-10T16:38:50;973.4;;;26.1;34.3
68873;BME280;55907;50.806;12.882;2023-06-10T16:41:51;973.4;;;26.1;34.7
68873;BME280;55907;50.806;12.882;2023-06-10T16:44:52;973.4;;;26.2;35.0
68873;BME280;55907;50.806;12.882;2023-06-10T16:47:54;973.5;;;26.1;36.0
68873;BME280;55907;50.806;12.882;2023-06-10T16:50:55;973.6;;;26.1;35.8
68873;BME280;55907;50.806;12.882;2023-06-10T16:53:56;973.6;;;26.1;35.4
68873;BME280;55907;50.806;12.882;2023-06-10T16:56:58;973.6;;;26.2;36.5
68873;BME280;55907;50.806;12.882;2023-06-10T16:59:59;973.7;;;26.1;35.5
68873;BME280;55907;50.806;12.882;2023-06-10T17:03:01;973.7;;;26.0;36.2
68873;BME280;55907;50.806;12.882;2023-06-10T17:06:02;973.7;;;25.9;35.7
68873;BME280;55907;50.806;12.882;2023-06-10T17:09:03;973.8;;;25.9;35.7
68873;BME280;55907;50.806;12.882;2023-06-10T17:12:05;973.8;;;25.7;35.8
68873;BME280;55907;50.806;12.882;2023-06-10T17:15:06;973.9;;;25.6;36.5
68873;BME280;55907;50.806;12.882;2023-06-10T17:18:07;973.9;;;25.6;36.0
68873;BME280;55907;50.806;12.882;2023-06-10T17:21:09;973.9;;;25.5;36.5
68873;BME280;55907;50.806;12.882;2023-06-10T17:27:12;973.9;;;25.4;37.5
68873;BME280;55907;50.806;12.882;2023-06-10T17:30:13;973.9;;;25.4;37.5
68873;BME280;55907;50.806;12.882;2023-06-10T17:33:14;973.9;;;25.3;37.8
68873;BME280;55907;50.806;12.882;2023-06-10T17:36:16;974.0;;;25.2;38.2
68873;BME280;55907;50.806;12.882;2023-06-10T17:39:17;973.9;;;25.3;38.4
68873;BME280;55907;50.806;12.882;2023-06-10T17:42:18;973.9;;;25.2;38.1
68873;BME280;55907;50.806;12.882;2023-06-10T17:45:20;973.9;;;25.2;38.2
68873;BME280;55907;50.806;12.882;2023-06-10T17:48:21;973.9;;;25.2;38.4
68873;BME280;55907;50.806;12.882;2023-06-10T17:51:22;973.9;;;25.2;39.0
68873;BME280;55907;50.806;12.882;2023-06-10T17:54:24;973.9;;;25.1;39.1
68873;BME280;55907;50.806;12.882;2023-06-10T17:57:25;973.9;;;25.1;39.2
68873;BME280;55907;50.806;12.882;2023-06-10T18:00:26;973.9;;;25.1;39.6
68873;BME280;55907;50.806;12.882;2023-06-10T18:06:29;974.0;;;25.0;40.3
68873;BME280;55907;50.806;12.882;2023-06-10T18:09:31;974.0;;;24.9;40.3
68873;BME280;55907;50.806;12.882;2023-06-10T18:12:32;974.0;;;24.8;40.5
68873;BME280;55907;50.806;12.882;2023-06-10T18:15:33;973.9;;;24.7;41.0
68873;BME280;55907;50.806;12.882;2023-06-10T18:18:35;973.9;;;24.7;41.4
68873;BME280;55907;50.806;12.882;2023-06-10T18:21:36;974.0;;;24.6;41.7
68873;BME280;55907;50.806;12.882;2023-06-10T18:24:37;974.0;;;24.5;42.1
68873;BME280;55907;50.806;12.882;2023-06-10T18:27:39;974.0;;;24.4;42.4
68873;BME280;55907;50.806;12.882;2023-06-10T18:30:40;974.1;;;24.4;43.2
68873;BME280;55907;50.806;12.882;2023-06-10T18:33:42;974.1;;;24.3;43.1
68873;BME280;55907;50.806;12.882;2023-06-10T18:36:43;974.2;;;24.2;43.9
68873;BME280;55907;50.806;12.882;2023-06-10T18:39:44;974.2;;;24.1;43.7